Layton, FL (33001)

7:11 AM EDT on August 25, 2016 (GMT -0400)
APRSWXNET | | Change Station

Elev 49 ft 24.84 °N, 80.79 °W | Updated 6 days ago

Partly Cloudy
Partly Cloudy
86 °F
Feels Like 97 °F
N
6
Wind Variable Wind from ENE
Gusts mph

Today
High -- | Low -- °F
--% Chance of Precip.
Yesterday
High -- | Low -- °F
Precip. -- in
Pressure 29.97 in
Visibility 10.0 miles
Clouds Clear
Heat Index 97 °F
Dew Point 77 °F
Humidity 75%
Rainfall in
Snow Depth Not available.
7:01 AM 7:48 PM
Waning Gibbous, 46% visible
METAR KHST 251058Z AUTO 33005KT 10SM CLR 26/25 A2996 RMK AO2 LTG DSNT NE SLP149 T02550245
Pressure 29.97 in
Visibility 10.0 miles
Clouds Clear
Heat Index 97 °F
Dew Point 77 °F
Humidity 75%
Rainfall in
Snow Depth Not available.
7:01 AM 7:48 PM
Waning Gibbous, 46% visible
METAR KHST 251058Z AUTO 33005KT 10SM CLR 26/25 A2996 RMK AO2 LTG DSNT NE SLP149 T02550245

10-Day Weather Forecast

Almanac

Astronomy

Aug. 25, 2016 Rise Set
Actual Time
Civil Twilight
Nautical Twilight
Astronomical Twilight
Moon
Length of Visible Light
Length of Day
Tomorrow will be .
, % of the Moon is Illuminated

Today's Extremes

State Highs State Lows

Community

WunderPhotos

Upload Photos

1,934,822 photos uploaded!

WunderBlog® & News

Nearby

Air Quality

  Air Quality AQ Index Pollutant
Not available.

Snow Depth

Station Depth Elevation

Earthquake Activity

City Distance Mag. Time & Date
Minimum magnitude displayed is 2.5.

Coastal Water Temperatures

Place Temperature

Stations

Nearby Weather Stations

Station Location Temp. Windchill Dew Point Humidity Wind Precip. Elev Updated Type
                   

Watches & Warnings

There are currently no watches in effect.